Time;durP1;ratioP1;P1;durP2;ratioP2;P2;SDS_P1;SDS_P2;PMS_P1;PMS_P2;Temp;Humidity;BMP_temperature;BMP_pressure;BME280_temperature;BME280_humidity;BME280_pressure;Samples;Min_cycle;Max_cycle;Signal;HPM_P1;HPM_P2
2023/08/31 00:00:15;;;;;;;0.30;0.30;;;;;;;13.72;88.21;99172.34;6182061;23;20112;-83
2023/08/31 00:02:43;;;;;;;0.50;0.50;;;;;;;13.74;88.40;99168.28;6156014;23;20021;-82
2023/08/31 00:05:10;;;;;;;0.43;0.43;;;;;;;13.81;88.42;99176.22;6182137;23;20041;-83
2023/08/31 00:07:47;;;;;;;0.40;0.40;;;;;;;13.84;88.33;99162.13;6182274;23;20475;-83
2023/08/31 00:10:17;;;;;;;0.40;0.40;;;;;;;13.95;88.16;99174.69;6181987;23;20057;-83
2023/08/31 00:12:44;;;;;;;0.50;0.50;;;;;;;14.01;87.92;99178.22;6182508;23;20066;-82
2023/08/31 00:15:11;;;;;;;0.40;0.40;;;;;;;14.08;87.81;99181.53;6182466;23;20400;-82
2023/08/31 00:17:39;;;;;;;0.40;0.40;;;;;;;14.16;87.56;99185.66;6182555;23;20031;-81
2023/08/31 00:20:11;;;;;;;0.40;0.40;;;;;;;14.21;87.48;99188.38;6182219;23;20108;-81
2023/08/31 00:22:38;;;;;;;0.38;0.38;;;;;;;14.25;87.21;99190.28;6156012;23;20021;-81
2023/08/31 00:25:08;;;;;;;0.40;0.40;;;;;;;14.33;86.91;99191.72;6168712;23;20693;-83
2023/08/31 00:27:37;;;;;;;0.40;0.40;;;;;;;14.36;86.60;99185.75;6182403;23;20021;-83
2023/08/31 00:30:07;;;;;;;0.40;0.40;;;;;;;14.40;86.46;99175.16;6182100;23;20521;-83
2023/08/31 00:32:35;;;;;;;0.40;0.40;;;;;;;14.40;86.32;99178.69;6182014;23;20025;-83
2023/08/31 00:35:03;;;;;;;0.40;0.40;;;;;;;14.35;86.44;99183.28;6180977;23;20025;-83
2023/08/31 00:37:30;;;;;;;0.40;0.40;;;;;;;14.31;86.54;99180.28;6182367;23;20064;-82
2023/08/31 00:39:58;;;;;;;0.40;0.40;;;;;;;14.23;86.68;99173.47;6156398;23;20044;-83
2023/08/31 00:42:29;;;;;;;0.40;0.40;;;;;;;14.20;87.01;99171.25;6182802;23;20052;-84
2023/08/31 00:44:59;;;;;;;0.45;0.45;;;;;;;14.05;87.28;99163.03;6158818;23;20076;-84
2023/08/31 00:47:27;;;;;;;0.50;0.50;;;;;;;13.98;88.03;99170.63;6160874;23;20031;-83
2023/08/31 00:49:55;;;;;;;0.50;0.50;;;;;;;13.84;88.41;99178.38;6182919;23;20055;-83
2023/08/31 00:52:22;;;;;;;0.50;0.50;;;;;;;13.80;88.94;99177.28;6184028;23;20052;-83
2023/08/31 00:54:52;;;;;;;0.45;0.45;;;;;;;13.72;89.50;99189.41;6157276;23;20079;-83
2023/08/31 00:57:19;;;;;;;0.40;0.40;;;;;;;13.68;90.05;99187.53;6182198;23;20338;-82
2023/08/31 00:59:47;;;;;;;0.50;0.50;;;;;;;13.66;90.44;99187.75;6152610;23;20026;-83
2023/08/31 01:02:22;;;;;;;0.40;0.40;;;;;;;13.68;90.87;99188.31;6173506;23;20021;-82
2023/08/31 01:04:57;;;;;;;0.40;0.40;;;;;;;13.63;90.98;99180.97;6158353;23;20024;-83
2023/08/31 01:07:31;;;;;;;0.40;0.40;;;;;;;13.62;91.31;99183.94;6183225;23;20025;-84
2023/08/31 01:10:21;;;;;;;0.40;0.40;;;;;;;13.61;91.55;99180.41;6157371;23;20031;-83
2023/08/31 01:13:02;;;;;;;0.50;0.50;;;;;;;13.59;91.75;99181.75;6158396;23;20028;-84
2023/08/31 01:15:31;;;;;;;0.50;0.50;;;;;;;13.57;91.69;99179.31;6183359;23;20021;-83
2023/08/31 01:18:03;;;;;;;0.50;0.50;;;;;;;13.52;91.87;99181.97;6144066;23;20101;-83
2023/08/31 01:20:52;;;;;;;0.47;0.47;;;;;;;13.54;92.27;99185.22;6162871;23;20021;-84
2023/08/31 01:23:20;;;;;;;0.43;0.43;;;;;;;13.50;92.23;99186.03;6157400;23;20338;-83
2023/08/31 01:25:48;;;;;;;0.50;0.50;;;;;;;13.47;92.60;99184.66;6157566;23;20032;-84
2023/08/31 01:28:15;;;;;;;0.50;0.50;;;;;;;13.43;93.05;99178.09;6132630;23;20025;-83
2023/08/31 01:31:09;;;;;;;0.50;0.50;;;;;;;13.44;93.19;99185.16;6184418;23;20025;-82
2023/08/31 01:37:15;;;;;;;0.50;0.50;;;;;;;13.41;93.30;99180.25;6188113;23;20024;-84
2023/08/31 01:39:56;;;;;;;0.50;0.50;;;;;;;13.44;93.37;99175.16;6185578;23;20359;-83
2023/08/31 01:42:25;;;;;;;0.40;0.40;;;;;;;13.41;93.46;99172.13;6134449;23;20026;-85
2023/08/31 01:44:53;;;;;;;0.50;0.50;;;;;;;13.40;93.66;99174.00;6162016;23;20095;-85
2023/08/31 01:47:20;;;;;;;0.40;0.40;;;;;;;13.37;93.88;99169.13;6163104;23;20053;-85
2023/08/31 01:49:51;;;;;;;0.40;0.40;;;;;;;13.37;94.17;99168.31;6187409;23;20025;-85
2023/08/31 01:52:19;;;;;;;0.50;0.50;;;;;;;13.36;94.32;99161.22;6191934;23;20031;-84
2023/08/31 01:54:46;;;;;;;0.50;0.50;;;;;;;13.35;94.36;99167.75;6190172;23;20021;-82
2023/08/31 01:57:13;;;;;;;0.40;0.40;;;;;;;13.29;94.38;99160.63;6185582;23;20021;-84
2023/08/31 02:00:04;;;;;;;0.50;0.50;;;;;;;13.29;94.70;99176.88;6160789;23;20053;-84
2023/08/31 02:02:41;;;;;;;0.50;0.50;;;;;;;13.28;94.93;99169.84;6186463;23;20032;-84
2023/08/31 02:05:09;;;;;;;0.50;0.50;;;;;;;13.28;95.00;99175.25;6191189;23;20550;-84
2023/08/31 02:07:40;;;;;;;0.43;0.43;;;;;;;13.26;95.12;99164.63;6191742;23;20020;-83
2023/08/31 02:10:07;;;;;;;0.50;0.50;;;;;;;13.21;95.23;99164.59;6192386;23;20025;-83
2023/08/31 02:12:54;;;;;;;0.50;0.50;;;;;;;13.15;95.48;99154.81;6150882;23;20113;-84
2023/08/31 02:15:22;;;;;;;0.50;0.50;;;;;;;13.12;95.94;99149.91;6191262;23;20017;-83
2023/08/31 02:17:52;;;;;;;0.43;0.43;;;;;;;13.11;96.31;99153.66;6190322;23;20025;-82
2023/08/31 02:20:20;;;;;;;0.50;0.50;;;;;;;13.14;96.45;99155.84;6159862;23;20024;-84
2023/08/31 02:22:49;;;;;;;0.50;0.50;;;;;;;13.15;96.63;99154.81;6157181;23;20052;-82
2023/08/31 02:25:16;;;;;;;0.40;0.40;;;;;;;13.15;96.67;99147.47;6184483;23;20056;-83
2023/08/31 02:27:46;;;;;;;0.40;0.40;;;;;;;13.17;96.65;99147.25;6160841;23;20029;-83
2023/08/31 02:30:16;;;;;;;0.40;0.40;;;;;;;13.13;96.80;99141.50;6186498;23;20036;-82
2023/08/31 02:32:43;;;;;;;0.50;0.50;;;;;;;13.11;96.95;99153.66;6185465;23;20028;-84
2023/08/31 02:35:14;;;;;;;0.50;0.50;;;;;;;13.07;97.30;99153.38;6122110;23;20026;-83
2023/08/31 02:37:41;;;;;;;0.50;0.50;;;;;;;13.07;97.55;99150.66;6121706;23;20088;-83
2023/08/31 02:40:11;;;;;;;0.50;0.50;;;;;;;13.05;97.79;99157.41;6097341;23;20026;-83
2023/08/31 02:42:38;;;;;;;0.50;0.50;;;;;;;13.02;98.04;99154.16;6121133;23;20026;-83
2023/08/31 02:45:06;;;;;;;0.40;0.40;;;;;;;13.02;98.18;99156.84;6072849;23;20022;-82
2023/08/31 02:47:34;;;;;;;0.50;0.50;;;;;;;13.00;98.29;99160.91;6120399;23;20576;-83
2023/08/31 02:50:01;;;;;;;0.50;0.50;;;;;;;13.03;98.50;99165.78;6121185;23;20022;-83
2023/08/31 02:52:30;;;;;;;0.40;0.40;;;;;;;13.02;98.54;99164.16;6121085;23;20572;-83
2023/08/31 02:54:57;;;;;;;0.50;0.50;;;;;;;13.01;98.59;99160.66;6121314;23;20033;-84
2023/08/31 02:57:27;;;;;;;0.50;0.50;;;;;;;13.04;98.61;99167.44;6120518;23;20100;-84
2023/08/31 02:59:55;;;;;;;0.50;0.50;;;;;;;13.05;98.68;99152.00;6121712;23;20029;-85
2023/08/31 03:02:22;;;;;;;0.50;0.50;;;;;;;13.06;98.65;99159.84;6121879;23;20050;-87
2023/08/31 03:04:49;;;;;;;0.50;0.50;;;;;;;13.08;98.80;99156.91;6123670;23;20056;-85
2023/08/31 03:07:16;;;;;;;0.47;0.47;;;;;;;13.07;98.69;99152.56;6099569;23;20022;-89
2023/08/31 03:09:50;;;;;;;0.40;0.40;;;;;;;13.09;98.70;99153.94;6102536;23;20029;-93
2023/08/31 03:12:18;;;;;;;0.50;0.50;;;;;;;13.07;98.38;99153.38;6093256;23;20488;-88
2023/08/31 03:14:45;;;;;;;0.50;0.50;;;;;;;13.09;98.40;99153.09;6153501;23;20038;-92
2023/08/31 03:17:12;;;;;;;0.50;0.50;;;;;;;13.07;98.46;99145.25;6164465;23;20104;-94
2023/08/31 03:19:41;;;;;;;0.50;0.50;;;;;;;13.13;98.32;99152.34;6171351;23;20417;-90
2023/08/31 03:22:10;;;;;;;0.50;0.50;;;;;;;13.15;98.06;99154.81;6168530;23;20025;-87
2023/08/31 03:24:38;;;;;;;0.50;0.50;;;;;;;13.14;98.10;99148.56;6158577;23;20351;-85
2023/08/31 03:27:05;;;;;;;0.50;0.50;;;;;;;13.14;98.06;99159.41;6185353;23;20020;-90
2023/08/31 03:29:36;;;;;;;0.50;0.50;;;;;;;13.17;97.93;99153.47;6159119;23;20037;-83
2023/08/31 03:32:06;;;;;;;0.50;0.50;;;;;;;13.26;97.65;99159.22;6159134;23;20476;-88
2023/08/31 03:34:33;;;;;;;0.50;0.50;;;;;;;13.27;97.50;99160.06;6185712;23;20025;-88
2023/08/31 03:37:00;;;;;;;0.50;0.50;;;;;;;13.37;97.23;99157.47;6184459;23;20395;-89
2023/08/31 03:39:27;;;;;;;0.50;0.50;;;;;;;13.40;97.08;99156.94;6183595;23;20020;-88
2023/08/31 03:41:58;;;;;;;0.50;0.50;;;;;;;13.46;96.73;99165.91;6185535;23;20032;-87
2023/08/31 03:44:26;;;;;;;0.50;0.50;;;;;;;13.50;96.57;99167.06;6158856;23;20400;-89
2023/08/31 03:46:53;;;;;;;0.50;0.50;;;;;;;13.53;96.30;99177.38;6159328;23;20032;-88
2023/08/31 03:49:20;;;;;;;0.50;0.50;;;;;;;13.51;96.13;99179.50;6188256;23;20032;-86
2023/08/31 03:51:48;;;;;;;0.50;0.50;;;;;;;13.47;96.24;99170.25;6184961;23;20025;-89
2023/08/31 03:54:16;;;;;;;0.50;0.50;;;;;;;13.51;96.18;99171.38;6158709;23;20048;-89
2023/08/31 03:56:43;;;;;;;0.50;0.50;;;;;;;13.62;95.97;99170.38;6159253;23;20352;-87
2023/08/31 03:59:12;;;;;;;0.50;0.50;;;;;;;13.74;95.45;99165.56;6154606;23;20021;-88
2023/08/31 04:01:39;;;;;;;0.40;0.40;;;;;;;13.83;94.89;99166.72;6180107;23;20028;-88
2023/08/31 04:04:07;;;;;;;0.50;0.50;;;;;;;13.94;94.37;99170.31;6158093;23;20020;-89
2023/08/31 04:06:37;;;;;;;0.50;0.50;;;;;;;14.04;93.68;99178.50;6183218;23;20029;-88
2023/08/31 04:09:15;;;;;;;0.50;0.50;;;;;;;14.12;93.11;99173.66;6160004;23;20083;-87
2023/08/31 04:11:45;;;;;;;0.45;0.45;;;;;;;14.14;92.54;99169.59;6161836;23;20095;-89
2023/08/31 04:14:12;;;;;;;0.50;0.50;;;;;;;14.28;92.06;99186.22;6210134;23;20008;-87
2023/08/31 04:16:40;;;;;;;0.50;0.50;;;;;;;14.35;91.50;99186.00;6208252;23;20005;-88
2023/08/31 04:19:08;;;;;;;0.50;0.50;;;;;;;14.43;91.13;99190.91;6184855;23;20040;-88
2023/08/31 04:21:36;;;;;;;0.43;0.43;;;;;;;14.49;90.76;99192.59;6185844;23;20044;-88
2023/08/31 04:24:03;;;;;;;0.40;0.40;;;;;;;14.61;90.24;99198.63;6192782;23;20468;-87
2023/08/31 04:26:30;;;;;;;0.50;0.50;;;;;;;14.77;89.41;99188.63;6138862;23;20452;-88
2023/08/31 04:29:03;;;;;;;0.50;0.50;;;;;;;14.91;88.53;99194.34;6162224;23;20029;-88
2023/08/31 04:31:30;;;;;;;0.50;0.50;;;;;;;15.11;87.75;99186.22;6186795;23;20467;-87
2023/08/31 04:33:58;;;;;;;0.50;0.50;;;;;;;15.32;86.69;99191.72;6185312;23;20053;-88
2023/08/31 04:36:28;;;;;;;0.50;0.50;;;;;;;15.52;85.69;99190.88;6187968;23;20075;-89
2023/08/31 04:39:01;;;;;;;0.50;0.50;;;;;;;15.66;84.21;99186.53;6193817;23;20025;-89
2023/08/31 04:41:30;;;;;;;0.50;0.50;;;;;;;15.81;83.52;99197.44;6168527;23;20055;-88
2023/08/31 04:43:57;;;;;;;0.45;0.45;;;;;;;15.99;82.63;99190.59;6141359;23;20049;-88
2023/08/31 04:46:25;;;;;;;0.50;0.50;;;;;;;16.13;81.56;99199.03;6167633;23;20145;-88
2023/08/31 04:48:53;;;;;;;0.50;0.50;;;;;;;16.18;81.04;99182.66;6209754;23;20005;-88
2023/08/31 04:51:34;;;;;;;0.40;0.40;;;;;;;16.34;80.82;99186.16;6188533;23;20445;-89
2023/08/31 04:54:07;;;;;;;0.50;0.50;;;;;;;16.31;80.54;99191.34;6111447;23;20083;-88
2023/08/31 04:56:42;;;;;;;0.50;0.50;;;;;;;16.28;79.90;99192.72;6184790;23;20252;-88
2023/08/31 04:59:09;;;;;;;0.50;0.50;;;;;;;16.40;79.89;99193.19;6135895;23;20421;-90
2023/08/31 05:01:38;;;;;;;0.40;0.40;;;;;;;16.45;79.34;99193.16;6187106;23;20494;-86
2023/08/31 05:04:05;;;;;;;0.40;0.40;;;;;;;16.50;79.04;99194.25;6159395;23;20032;-88
2023/08/31 05:06:36;;;;;;;0.40;0.40;;;;;;;16.56;78.96;99199.41;6183925;23;20085;-87
2023/08/31 05:09:04;;;;;;;0.50;0.50;;;;;;;16.62;78.27;99206.47;6183579;23;20071;-88
2023/08/31 05:11:31;;;;;;;0.40;0.40;;;;;;;16.69;77.61;99209.69;6156907;23;20463;-88
2023/08/31 05:13:58;;;;;;;0.43;0.43;;;;;;;16.69;77.18;99195.28;6156903;23;20076;-91
2023/08/31 05:16:27;;;;;;;0.40;0.40;;;;;;;16.68;77.11;99207.25;6183550;23;20029;-90
2023/08/31 05:18:55;;;;;;;0.40;0.40;;;;;;;16.76;76.08;99206.69;6163487;23;20028;-88
2023/08/31 05:21:26;;;;;;;0.50;0.50;;;;;;;16.80;76.16;99204.22;6157518;23;20029;-87
2023/08/31 05:23:54;;;;;;;0.40;0.40;;;;;;;16.89;75.97;99199.84;6185703;23;20076;-89
2023/08/31 05:26:21;;;;;;;0.40;0.40;;;;;;;16.93;75.38;99198.16;6138515;23;20021;-89
2023/08/31 05:28:51;;;;;;;0.40;0.40;;;;;;;16.89;75.74;99192.47;6129034;23;20024;-91
2023/08/31 05:31:18;;;;;;;0.47;0.47;;;;;;;16.94;75.19;99197.06;6184312;23;20642;-89
2023/08/31 05:33:48;;;;;;;0.50;0.50;;;;;;;16.95;75.34;99195.97;6182114;23;20528;-92
2023/08/31 05:36:17;;;;;;;0.50;0.50;;;;;;;17.11;74.54;99202.13;6156759;23;20021;-86
2023/08/31 05:38:46;;;;;;;0.50;0.50;;;;;;;17.20;75.14;99195.00;6154287;23;20484;-85
2023/08/31 05:41:13;;;;;;;0.40;0.40;;;;;;;17.47;74.51;99207.31;6181641;23;20032;-89
2023/08/31 05:43:40;;;;;;;0.40;0.40;;;;;;;17.66;74.03;99219.19;6154111;23;20044;-86
2023/08/31 05:46:35;;;;;;;0.40;0.40;;;;;;;17.64;73.18;99217.84;6181188;23;20021;-87
2023/08/31 05:49:47;;;;;;;0.40;0.40;;;;;;;17.57;73.43;99226.34;6021890;23;20022;-87
2023/08/31 05:52:20;;;;;;;0.40;0.40;;;;;;;17.55;73.23;99225.84;6120550;23;20030;-89
2023/08/31 05:54:48;;;;;;;0.40;0.40;;;;;;;17.63;72.90;99240.78;6127073;23;20037;-88
2023/08/31 05:57:19;;;;;;;0.40;0.40;;;;;;;17.79;72.47;99236.00;6132322;23;20005;-88
2023/08/31 05:59:55;;;;;;;0.40;0.40;;;;;;;17.86;72.06;99236.53;6130079;23;20022;-88
2023/08/31 06:02:23;;;;;;;0.50;0.50;;;;;;;17.80;71.98;99237.66;6126559;23;20059;-87
2023/08/31 06:04:50;;;;;;;0.40;0.40;;;;;;;17.77;72.72;99239.00;6129565;23;20028;-88
2023/08/31 06:07:18;;;;;;;0.40;0.40;;;;;;;17.87;72.42;99251.78;6124439;23;20034;-88
2023/08/31 06:09:46;;;;;;;0.40;0.40;;;;;;;17.87;72.25;99265.44;6118343;23;20045;-85
2023/08/31 06:12:14;;;;;;;0.40;0.40;;;;;;;17.92;72.14;99255.28;6123624;23;20520;-90
2023/08/31 06:14:41;;;;;;;0.40;0.40;;;;;;;17.79;71.91;99246.94;6118351;23;20117;-88
2023/08/31 06:17:11;;;;;;;0.40;0.40;;;;;;;17.67;72.58;99250.00;6118272;23;20084;-87
2023/08/31 06:19:39;;;;;;;0.40;0.40;;;;;;;17.70;73.66;99258.47;6117378;23;20088;-87
2023/08/31 06:22:06;;;;;;;0.40;0.40;;;;;;;17.85;73.01;99246.63;6117082;23;20030;-86
2023/08/31 06:24:34;;;;;;;0.40;0.40;;;;;;;18.09;72.61;99243.13;6116239;23;20032;-87
2023/08/31 06:27:01;;;;;;;0.40;0.40;;;;;;;18.25;72.42;99238.31;6140857;23;20025;-87
2023/08/31 06:29:30;;;;;;;0.40;0.40;;;;;;;18.54;71.34;99236.34;6180391;23;20024;-87
2023/08/31 06:31:58;;;;;;;0.40;0.40;;;;;;;18.77;70.02;99250.34;6179478;23;20028;-86
2023/08/31 06:34:26;;;;;;;0.50;0.50;;;;;;;18.72;70.36;99248.44;6179187;23;20550;-86
2023/08/31 06:36:53;;;;;;;0.40;0.40;;;;;;;18.84;69.91;99242.59;6179901;23;20021;-85
2023/08/31 06:39:26;;;;;;;0.47;0.47;;;;;;;19.00;69.46;99241.28;6180037;23;20037;-85
2023/08/31 06:41:55;;;;;;;;;;;;;;;19.15;68.95;99253.13;6156172;23;20044;-86
2023/08/31 06:44:30;;;;;;;0.40;0.40;;;;;;;19.31;68.35;99243.56;6178313;23;19975;-87
2023/08/31 06:47:00;;;;;;;0.50;0.50;;;;;;;19.42;67.51;99250.53;6130633;23;20044;-87
2023/08/31 06:49:32;;;;;;;0.40;0.40;;;;;;;19.48;67.10;99243.84;6131688;23;20021;-86
2023/08/31 06:52:02;;;;;;;0.40;0.40;;;;;;;19.31;67.52;99251.78;6156912;23;20119;-87
2023/08/31 06:54:38;;;;;;;0.40;0.40;;;;;;;19.18;68.01;99252.53;6183522;23;20079;-89
2023/08/31 06:57:09;;;;;;;0.40;0.40;;;;;;;19.15;68.85;99256.66;6155022;23;20698;-86
2023/08/31 06:59:37;;;;;;;0.50;0.50;;;;;;;19.43;68.75;99251.34;6184082;23;20428;-86
2023/08/31 07:02:05;;;;;;;0.40;0.40;;;;;;;19.72;67.25;99247.63;6158473;23;20025;-87
2023/08/31 07:04:34;;;;;;;0.40;0.40;;;;;;;19.79;67.38;99246.13;6135793;23;20024;-89
2023/08/31 07:07:02;;;;;;;0.40;0.40;;;;;;;20.13;66.79;99247.75;6165117;23;20045;-91
2023/08/31 07:09:36;;;;;;;0.40;0.40;;;;;;;20.39;65.91;99245.34;6169051;23;20025;-92
2023/08/31 07:12:04;;;;;;;0.40;0.40;;;;;;;20.58;64.94;99253.47;6189931;23;20079;-86
2023/08/31 07:14:31;;;;;;;0.40;0.40;;;;;;;20.54;64.29;99247.81;6180859;23;20353;-87
2023/08/31 07:16:58;;;;;;;0.40;0.40;;;;;;;20.52;65.00;99249.19;6178230;23;20424;-89
2023/08/31 07:19:27;;;;;;;0.40;0.40;;;;;;;20.84;63.19;99245.56;6175777;23;20024;-86
2023/08/31 07:21:54;;;;;;;0.40;0.40;;;;;;;20.88;62.18;99253.97;6152559;23;20036;-85
2023/08/31 07:24:24;;;;;;;0.40;0.40;;;;;;;20.94;62.93;99241.78;6178600;23;20084;-85
2023/08/31 07:26:53;;;;;;;0.40;0.40;;;;;;;20.97;61.94;99257.63;6178073;23;20108;-87
2023/08/31 07:29:22;;;;;;;0.50;0.50;;;;;;;21.25;61.00;99244.66;6151826;23;20041;-85
2023/08/31 07:31:49;;;;;;;0.47;0.47;;;;;;;21.42;60.38;99244.00;6178689;23;20029;-86
2023/08/31 07:34:16;;;;;;;0.40;0.40;;;;;;;21.82;59.60;99252.41;6131915;23;20020;-87
2023/08/31 07:36:43;;;;;;;0.40;0.40;;;;;;;22.16;58.30;99253.75;6182401;23;20071;-88
2023/08/31 07:39:18;;;;;;;0.40;0.40;;;;;;;22.48;57.86;99236.13;6183911;23;20028;-87
2023/08/31 07:41:46;;;;;;;0.40;0.40;;;;;;;22.76;57.79;99247.69;6132156;23;20137;-86
2023/08/31 07:44:13;;;;;;;0.40;0.40;;;;;;;22.95;56.53;99239.16;6157588;23;20044;-86
2023/08/31 07:46:40;;;;;;;0.40;0.40;;;;;;;23.01;55.44;99237.91;6163183;23;20001;-93
2023/08/31 07:49:08;;;;;;;0.40;0.40;;;;;;;22.94;54.44;99232.84;6127693;23;20381;-89
2023/08/31 07:51:37;;;;;;;0.40;0.40;;;;;;;22.79;56.07;99229.72;6121630;23;20065;-92
2023/08/31 07:54:04;;;;;;;0.40;0.40;;;;;;;23.08;55.62;99226.44;6123872;23;20087;-87
2023/08/31 07:56:31;;;;;;;0.40;0.40;;;;;;;23.22;54.56;99237.28;6127347;23;20029;-90
2023/08/31 07:59:26;;;;;;;0.40;0.40;;;;;;;23.26;54.44;99228.06;6134908;23;20032;-91
2023/08/31 08:01:57;;;;;;;0.40;0.40;;;;;;;23.50;53.76;99235.03;6116238;23;20511;-91
2023/08/31 08:04:31;;;;;;;0.40;0.40;;;;;;;23.70;53.31;99226.09;6088311;23;20047;-89
2023/08/31 08:07:06;;;;;;;0.40;0.40;;;;;;;23.88;52.23;99226.09;6085380;23;20493;-93
2023/08/31 08:09:33;;;;;;;0.40;0.40;;;;;;;24.03;52.31;99217.31;6080499;23;20074;-91
2023/08/31 08:12:00;;;;;;;0.40;0.40;;;;;;;24.25;51.67;99218.19;6089821;23;20078;-92
2023/08/31 08:14:30;;;;;;;0.40;0.40;;;;;;;24.54;51.04;99215.50;6108330;23;20042;-91
2023/08/31 08:17:04;;;;;;;0.40;0.40;;;;;;;24.62;50.23;99209.13;6036214;23;20030;-93
2023/08/31 08:19:33;;;;;;;0.40;0.40;;;;;;;24.78;49.21;99192.00;6096460;23;20240;-91
2023/08/31 08:22:03;;;;;;;0.40;0.40;;;;;;;25.15;49.13;99184.75;6182973;23;20029;-90
2023/08/31 08:24:51;;;;;;;0.40;0.40;;;;;;;25.35;47.52;99210.78;6147233;23;20052;-93
2023/08/31 08:27:23;;;;;;;0.40;0.40;;;;;;;25.48;47.35;99217.97;6196450;23;20116;-92
2023/08/31 08:30:15;;;;;;;0.40;0.40;;;;;;;25.48;48.27;99228.22;6168351;23;20341;-92
2023/08/31 08:32:43;;;;;;;0.40;0.40;;;;;;;25.42;47.88;99222.09;6192699;23;20032;-90
2023/08/31 08:35:13;;;;;;;0.40;0.40;;;;;;;25.69;46.14;99231.75;6154084;23;20020;-91
2023/08/31 08:37:53;;;;;;;0.50;0.50;;;;;;;26.17;45.83;99229.50;6141422;23;20001;-91
2023/08/31 08:40:20;;;;;;;0.40;0.40;;;;;;;26.49;44.89;99229.78;6153991;23;20067;-91
2023/08/31 08:42:53;;;;;;;0.40;0.40;;;;;;;26.70;44.69;99224.94;6157880;23;20396;-91
2023/08/31 08:45:25;;;;;;;0.40;0.40;;;;;;;26.84;43.46;99213.53;6194081;22;20035;-91
2023/08/31 08:47:52;;;;;;;0.40;0.40;;;;;;;27.14;42.15;99213.22;6222069;23;20052;-92
2023/08/31 08:50:20;;;;;;;0.40;0.40;;;;;;;26.94;42.65;99226.06;6218667;23;20066;-90
2023/08/31 08:52:48;;;;;;;0.40;0.40;;;;;;;27.11;41.28;99234.09;6225714;23;20108;-91
2023/08/31 08:55:16;;;;;;;0.40;0.40;;;;;;;26.86;42.15;99235.31;6178486;23;20020;-90
2023/08/31 08:57:43;;;;;;;0.40;0.40;;;;;;;27.13;41.61;99239.31;6174208;23;20021;-92
2023/08/31 09:00:13;;;;;;;0.40;0.40;;;;;;;27.55;41.40;99242.56;6222151;23;20024;-92
2023/08/31 09:02:41;;;;;;;0.40;0.40;;;;;;;27.90;40.91;99235.63;6180447;23;20084;-91
2023/08/31 09:05:13;;;;;;;0.40;0.40;;;;;;;28.39;39.96;99233.34;6181188;23;20053;-92
2023/08/31 09:08:03;;;;;;;0.40;0.40;;;;;;;28.06;40.24;99239.25;6229951;23;20384;-89
2023/08/31 09:10:46;;;;;;;0.40;0.40;;;;;;;28.19;40.48;99224.13;6201929;23;20460;-91
2023/08/31 09:13:17;;;;;;;0.40;0.40;;;;;;;28.67;39.94;99229.69;6227205;23;20024;-91
2023/08/31 09:15:47;;;;;;;0.40;0.40;;;;;;;28.55;38.72;99229.78;6192650;23;20456;-91
2023/08/31 09:18:25;;;;;;;0.40;0.40;;;;;;;28.35;39.47;99228.88;6221754;23;20021;-91
2023/08/31 09:20:59;;;;;;;0.40;0.40;;;;;;;28.90;38.27;99229.84;6219905;23;20036;-90
2023/08/31 09:23:28;;;;;;;0.30;0.30;;;;;;;28.74;38.60;99224.31;6195950;23;20025;-90
2023/08/31 09:26:04;;;;;;;0.40;0.40;;;;;;;28.68;38.79;99231.28;6171060;23;20055;-91
2023/08/31 09:28:33;;;;;;;0.40;0.40;;;;;;;28.63;39.80;99232.38;6172051;23;20024;-91
2023/08/31 09:31:11;;;;;;;0.40;0.40;;;;;;;29.25;37.86;99227.06;6221267;23;20070;-91
2023/08/31 09:33:49;;;;;;;0.40;0.40;;;;;;;29.83;37.13;99217.09;6217175;23;20020;-87
2023/08/31 09:36:28;;;;;;;0.30;0.30;;;;;;;30.30;36.11;99218.78;6167605;23;20036;-88
2023/08/31 09:39:02;;;;;;;0.40;0.40;;;;;;;30.62;35.79;99225.69;6198072;23;20072;-91
2023/08/31 09:41:34;;;;;;;0.40;0.40;;;;;;;30.71;36.02;99222.63;6132417;23;20042;-89
2023/08/31 09:44:17;;;;;;;0.40;0.40;;;;;;;30.90;35.62;99210.63;6038658;23;20023;-88
2023/08/31 09:46:48;;;;;;;0.40;0.40;;;;;;;31.33;35.45;99222.34;6018496;23;20079;-91
2023/08/31 09:49:18;;;;;;;0.40;0.40;;;;;;;31.32;34.73;99229.09;6026419;23;20027;-93
2023/08/31 09:51:48;;;;;;;0.40;0.40;;;;;;;31.04;35.34;99226.72;5995890;23;20024;-89
2023/08/31 09:54:23;;;;;;;0.40;0.40;;;;;;;31.29;35.34;99235.44;5984629;23;20034;-85
2023/08/31 09:56:51;;;;;;;0.40;0.40;;;;;;;31.67;34.15;99239.09;5987601;23;20028;-90
2023/08/31 09:59:20;;;;;;;0.40;0.40;;;;;;;31.85;34.14;99234.53;6008945;23;20144;-90
2023/08/31 10:01:48;;;;;;;0.40;0.40;;;;;;;31.83;33.99;99231.34;5979894;24;20035;-90
2023/08/31 10:04:16;;;;;;;0.40;0.40;;;;;;;31.69;34.52;99248.69;5959883;24;20048;-89
2023/08/31 10:06:45;;;;;;;0.40;0.40;;;;;;;31.95;34.00;99231.09;5936038;24;20103;-90
2023/08/31 10:09:15;;;;;;;0.30;0.30;;;;;;;31.87;34.46;99228.56;5963993;24;20442;-91
2023/08/31 10:12:53;;;;;;;0.30;0.30;;;;;;;31.76;34.42;99227.66;5951703;23;20043;-89
2023/08/31 10:15:57;;;;;;;0.38;0.38;;;;;;;31.42;33.32;99211.72;6038540;23;20612;-86
2023/08/31 10:18:25;;;;;;;0.40;0.40;;;;;;;31.86;33.66;99224.19;6044174;23;20119;-89
2023/08/31 10:20:52;;;;;;;0.30;0.30;;;;;;;32.44;33.34;99219.97;6009493;23;20113;-86
2023/08/31 10:23:20;;;;;;;0.40;0.40;;;;;;;32.72;33.08;99211.84;6007259;23;20482;-90
2023/08/31 10:25:53;;;;;;;0.30;0.30;;;;;;;32.99;32.39;99226.38;6060021;23;20592;-89
2023/08/31 10:28:25;;;;;;;0.30;0.30;;;;;;;32.77;32.77;99216.25;6063978;23;20027;-89
2023/08/31 10:31:28;;;;;;;0.30;0.30;;;;;;;33.22;32.55;99217.75;6036754;23;20409;-86
2023/08/31 10:33:59;;;;;;;0.40;0.40;;;;;;;33.42;31.77;99214.63;6064581;23;20111;-88
2023/08/31 10:36:44;;;;;;;0.30;0.30;;;;;;;33.75;31.46;99218.34;6066276;23;20113;-89
2023/08/31 10:39:21;;;;;;;0.30;0.30;;;;;;;33.43;31.50;99214.22;6066685;23;20023;-90
2023/08/31 10:42:00;;;;;;;0.40;0.40;;;;;;;33.69;31.30;99222.75;6043961;23;20046;-89
2023/08/31 10:44:32;;;;;;;0.30;0.30;;;;;;;34.19;30.69;99203.28;6042165;23;20420;-89
2023/08/31 10:47:03;;;;;;;0.30;0.30;;;;;;;34.55;30.40;99203.28;6041904;23;20033;-90
2023/08/31 10:49:34;;;;;;;0.30;0.30;;;;;;;35.01;28.77;99217.22;6066764;23;20023;-87
2023/08/31 10:52:19;;;;;;;0.40;0.40;;;;;;;34.55;28.95;99215.28;6096704;23;20084;-89
2023/08/31 10:54:55;;;;;;;0.30;0.30;;;;;;;34.21;29.14;99201.69;6128819;23;20088;-88
2023/08/31 10:57:32;;;;;;;0.30;0.30;;;;;;;33.62;30.10;99201.94;6084621;23;20022;-90
2023/08/31 10:59:59;;;;;;;0.40;0.40;;;;;;;34.02;28.64;99205.63;6191709;23;20107;-89
2023/08/31 11:02:47;;;;;;;0.30;0.30;;;;;;;34.20;29.18;99202.06;6167128;23;20051;-88
2023/08/31 11:05:15;;;;;;;0.30;0.30;;;;;;;34.42;29.10;99197.28;6167440;23;20052;-89
2023/08/31 11:07:56;;;;;;;0.40;0.40;;;;;;;35.07;28.33;99195.16;6217075;23;20024;-87
2023/08/31 11:10:30;;;;;;;0.35;0.35;;;;;;;34.89;27.63;99195.22;6166122;23;20032;-87
2023/08/31 11:13:20;;;;;;;0.30;0.30;;;;;;;35.05;28.09;99189.19;6190683;23;20035;-88
2023/08/31 11:15:47;;;;;;;0.30;0.30;;;;;;;35.28;27.97;99185.91;6216373;23;20028;-87
2023/08/31 11:18:17;;;;;;;0.30;0.30;;;;;;;34.96;29.00;99179.19;6167005;23;20027;-90
2023/08/31 11:20:47;;;;;;;0.30;0.30;;;;;;;35.26;28.47;99182.72;6162315;23;20401;-87
2023/08/31 11:23:16;;;;;;;0.30;0.30;;;;;;;35.30;28.46;99175.09;6161957;23;20031;-89
2023/08/31 11:25:44;;;;;;;0.30;0.30;;;;;;;35.17;28.50;99183.97;6214016;23;20143;-88
2023/08/31 11:28:14;;;;;;;0.30;0.30;;;;;;;35.65;28.50;99181.75;6166035;23;20119;-88
2023/08/31 11:30:44;;;;;;;0.30;0.30;;;;;;;36.01;27.88;99179.53;6214667;23;20080;-88
2023/08/31 11:33:13;;;;;;;0.30;0.30;;;;;;;35.33;28.01;99180.69;6190596;23;20032;-88
2023/08/31 11:35:44;;;;;;;0.30;0.30;;;;;;;35.61;27.52;99183.78;6220381;23;20020;-89
2023/08/31 11:38:12;;;;;;;0.30;0.30;;;;;;;35.72;27.66;99170.47;6238064;23;20017;-87
2023/08/31 11:40:39;;;;;;;0.30;0.30;;;;;;;35.89;27.40;99165.97;6160675;23;20020;-88
2023/08/31 11:43:07;;;;;;;0.30;0.30;;;;;;;36.18;27.41;99156.13;6191865;23;20031;-87
2023/08/31 11:45:36;;;;;;;0.30;0.30;;;;;;;36.18;27.09;99150.50;6143550;23;20086;-88
2023/08/31 11:48:08;;;;;;;0.30;0.30;;;;;;;36.35;27.39;99142.34;6168444;23;20055;-90
2023/08/31 11:50:39;;;;;;;0.30;0.30;;;;;;;36.28;27.48;99148.00;6216781;23;20427;-87
2023/08/31 11:53:09;;;;;;;0.30;0.30;;;;;;;36.48;27.19;99143.41;6211371;23;20025;-88
2023/08/31 11:55:49;;;;;;;0.30;0.30;;;;;;;36.36;27.13;99144.75;6213110;23;20423;-87